DTN weather

Shreveport Downtown Airport
Shreveport, Louisiana, United States

Public forecast

Using degrees Fahrenheit for public forecast. Weather courtesy of forecast.io.

METAR (pilot weather report)

Retrieved 2019/09/16 00:53 UTC (8 minutes ago):

KDTN 160053Z 08003KT 10SM CLR 32/21 A2999 RMK AO2 SLP151 T03170206

TAF (pilot weather forecast)

Forecast is more than 6 hours old.

Closest forecast is Barksdale Air Force Base, 4.8 nm (8.8 km) ESE. Retrieved 2019/09/15 18:09 UTC (7 hours ago):

TAF KBAD 151800Z 1518/1624 07009KT 9999 SCT060 QNH2997INS BECMG 1601/1602 06005KT 9999 SKC QNH3000INS BECMG 1615/1616 10012KT 9999 SCT050 QNH2992INS TX37/1522Z TN23/1611Z